Aeroporto :
LOGIN :

Iscrizione | Disclaimer

   EN    FR    IT 

 










Sommario :    VFR   VFR Marginale   IFR   IFR Intensivo   IFR Molto Intensivo
Visibilità : 
Base nubi : 
>= 8 km
>= 3000ft
5 / 8 km
1000 / 3000 ft
1500m / 5 km
500 / 1000 ft
800 / 1500m
200 / 500 ft
< 800m
< 200 ft
Simboli :   Temporali  Nebbia  Neve Forte  Precipitazioni Forti  Vento > 20 kt
SIGMETs :   Varie  Temporali  Ghiacco  Turbolenza  Onda orograficha  Ceneri Vulcaniche







- Altitudine del aeroporto : 97 ft
- Codice IATA : EBJ


EKEB - Esbjerg

ULTIMO METAR :
  • 231420Z AUTO 30013KT 9999 FEW028/// 08/03 Q1028

METARs OBSOLETI :
  • 231350Z AUTO 28014KT 9999 SCT027/// 08/02 Q1028
  • 231320Z AUTO 30013KT 9999 SCT028/// 09/03 Q1028
  • 231250Z AUTO 30013KT 9999 BKN025/// 09/05 Q1028
  • 231220Z AUTO 29013KT 9999 FEW025/// 09/04 Q1027
  • 231150Z AUTO 27013KT 9999 FEW025/// 10/05 Q1027

TAF TAF EKEB
Valido dal 23 a 15 ore il 23 a 23 ore UTC


231421Z 2315/2323 29012KT 9999 SCT025
Nessun NOTAM noto per questo aeroporto.



MetMap, La meteo Aeronautica in un colpo d'occhio ! - Copyright ORBIFLY Dicembre 2007 - Disclaimer

ORBIFLY MET'MAP TEAM :

Programmazione e sviluppo : Alexandra Zaïnal
Concezione e sviluppo : Baudouin d'Aumeries
Co-Programmazione e sviluppo : Marc-Olivier Méhu
Supporto tecnico e logistico : Manuel Goepfert
Aiuto per la traduzione : Arnaldo La Scala

Contatto : metmap@orbifly.com




FONTI E CREDITI :

   NOAA